sensor_id;sensor_type;location;lat;lon;timestamp;pressure;altitude;pressure_sealevel;temperature;humidity
61384;BME280;63511;49.346;8.798;2023-07-20T00:02:09;99976.38;;;22.76;48.07
61384;BME280;63511;49.346;8.798;2023-07-20T00:04:36;99971.91;;;22.63;47.75
61384;BME280;63511;49.346;8.798;2023-07-20T00:07:03;99979.75;;;22.72;47.85
61384;BME280;63511;49.346;8.798;2023-07-20T00:09:33;99976.94;;;22.56;48.13
61384;BME280;63511;49.346;8.798;2023-07-20T00:12:00;99974.31;;;22.54;47.70
61384;BME280;63511;49.346;8.798;2023-07-20T00:14:28;99973.16;;;22.31;48.08
61384;BME280;63511;49.346;8.798;2023-07-20T00:16:57;99964.91;;;22.53;47.83
61384;BME280;63511;49.346;8.798;2023-07-20T00:19:24;99974.41;;;22.60;47.81
61384;BME280;63511;49.346;8.798;2023-07-20T00:21:50;99967.25;;;22.36;48.18
61384;BME280;63511;49.346;8.798;2023-07-20T00:24:17;99967.28;;;22.41;47.88
61384;BME280;63511;49.346;8.798;2023-07-20T00:26:46;99971.91;;;22.66;47.50
61384;BME280;63511;49.346;8.798;2023-07-20T00:29:13;99979.59;;;22.62;47.95
61384;BME280;63511;49.346;8.798;2023-07-20T00:31:41;99965.88;;;22.63;47.95
61384;BME280;63511;49.346;8.798;2023-07-20T00:34:08;99982.09;;;22.57;48.08
61384;BME280;63511;49.346;8.798;2023-07-20T00:36:35;99980.34;;;22.53;48.09
61384;BME280;63511;49.346;8.798;2023-07-20T00:39:02;99977.53;;;22.36;48.05
61384;BME280;63511;49.346;8.798;2023-07-20T00:41:29;99983.78;;;22.54;47.90
61384;BME280;63511;49.346;8.798;2023-07-20T00:44:00;99974.63;;;22.12;48.16
61384;BME280;63511;49.346;8.798;2023-07-20T00:46:26;99982.56;;;22.29;48.63
61384;BME280;63511;49.346;8.798;2023-07-20T00:48:55;99988.00;;;22.49;48.30
61384;BME280;63511;49.346;8.798;2023-07-20T00:51:23;99986.09;;;22.35;48.53
61384;BME280;63511;49.346;8.798;2023-07-20T00:53:50;99995.16;;;22.11;48.98
61384;BME280;63511;49.346;8.798;2023-07-20T00:56:17;99991.16;;;22.28;48.67
61384;BME280;63511;49.346;8.798;2023-07-20T00:58:44;99994.41;;;22.16;48.67
61384;BME280;63511;49.346;8.798;2023-07-20T01:01:10;99990.28;;;22.27;48.68
61384;BME280;63511;49.346;8.798;2023-07-20T01:03:37;99997.81;;;22.15;48.98
61384;BME280;63511;49.346;8.798;2023-07-20T01:06:12;99999.69;;;22.28;48.75
61384;BME280;63511;49.346;8.798;2023-07-20T01:08:47;99984.97;;;22.18;48.81
61384;BME280;63511;49.346;8.798;2023-07-20T01:11:31;100002.59;;;22.51;48.77
61384;BME280;63511;49.346;8.798;2023-07-20T01:14:02;100001.03;;;22.03;48.92
61384;BME280;63511;49.346;8.798;2023-07-20T01:16:29;99990.06;;;22.14;49.24
61384;BME280;63511;49.346;8.798;2023-07-20T01:18:56;99992.50;;;22.04;50.04
61384;BME280;63511;49.346;8.798;2023-07-20T01:21:31;99992.81;;;22.26;49.73
61384;BME280;63511;49.346;8.798;2023-07-20T01:24:24;99997.97;;;22.26;50.24
61384;BME280;63511;49.346;8.798;2023-07-20T01:27:23;99988.19;;;22.02;50.46
61384;BME280;63511;49.346;8.798;2023-07-20T01:30:03;99993.72;;;21.77;53.00
61384;BME280;63511;49.346;8.798;2023-07-20T01:32:36;99990.19;;;21.72;51.52
61384;BME280;63511;49.346;8.798;2023-07-20T01:35:07;99993.97;;;21.42;53.68
61384;BME280;63511;49.346;8.798;2023-07-20T01:37:35;99992.00;;;21.28;53.98
61384;BME280;63511;49.346;8.798;2023-07-20T01:40:04;99997.25;;;21.34;53.63
61384;BME280;63511;49.346;8.798;2023-07-20T01:42:32;99995.75;;;21.01;55.62
61384;BME280;63511;49.346;8.798;2023-07-20T01:44:58;99990.34;;;20.89;55.34
61384;BME280;63511;49.346;8.798;2023-07-20T01:47:25;99998.75;;;20.81;56.52
61384;BME280;63511;49.346;8.798;2023-07-20T01:49:53;99988.94;;;20.63;57.21
61384;BME280;63511;49.346;8.798;2023-07-20T01:52:20;100007.06;;;20.31;58.67
61384;BME280;63511;49.346;8.798;2023-07-20T01:54:46;100000.38;;;20.38;57.51
61384;BME280;63511;49.346;8.798;2023-07-20T01:57:13;100003.38;;;20.22;58.62
61384;BME280;63511;49.346;8.798;2023-07-20T01:59:40;100005.19;;;20.24;58.20
61384;BME280;63511;49.346;8.798;2023-07-20T02:02:07;100007.28;;;20.06;59.04
61384;BME280;63511;49.346;8.798;2023-07-20T02:04:33;99997.38;;;19.84;59.32
61384;BME280;63511;49.346;8.798;2023-07-20T02:07:02;100003.59;;;19.95;58.87
61384;BME280;63511;49.346;8.798;2023-07-20T02:09:29;100004.34;;;19.89;59.35
61384;BME280;63511;49.346;8.798;2023-07-20T02:11:56;99998.66;;;19.67;60.39
61384;BME280;63511;49.346;8.798;2023-07-20T02:14:23;100008.13;;;19.71;59.96
61384;BME280;63511;49.346;8.798;2023-07-20T02:16:49;100002.13;;;19.06;62.03
61384;BME280;63511;49.346;8.798;2023-07-20T02:19:18;100010.47;;;19.30;61.88
61384;BME280;63511;49.346;8.798;2023-07-20T02:21:45;100005.41;;;19.33;61.52
61384;BME280;63511;49.346;8.798;2023-07-20T02:24:13;100008.53;;;19.23;62.46
61384;BME280;63511;49.346;8.798;2023-07-20T02:26:40;100008.47;;;19.20;62.21
61384;BME280;63511;49.346;8.798;2023-07-20T02:29:07;100008.88;;;18.74;63.52
61384;BME280;63511;49.346;8.798;2023-07-20T02:31:36;100009.19;;;18.85;62.97
61384;BME280;63511;49.346;8.798;2023-07-20T02:34:04;99999.34;;;18.68;64.32
61384;BME280;63511;49.346;8.798;2023-07-20T02:36:31;100019.06;;;18.46;65.63
61384;BME280;63511;49.346;8.798;2023-07-20T02:38:58;100031.25;;;18.26;66.91
61384;BME280;63511;49.346;8.798;2023-07-20T02:41:28;100020.75;;;18.45;66.06
61384;BME280;63511;49.346;8.798;2023-07-20T02:43:54;100027.66;;;18.48;65.41
61384;BME280;63511;49.346;8.798;2023-07-20T02:46:22;100019.19;;;18.50;65.15
61384;BME280;63511;49.346;8.798;2023-07-20T02:48:48;100017.91;;;18.36;65.99
61384;BME280;63511;49.346;8.798;2023-07-20T02:51:15;100029.00;;;18.10;67.38
61384;BME280;63511;49.346;8.798;2023-07-20T02:53:42;100034.13;;;18.10;67.26
61384;BME280;63511;49.346;8.798;2023-07-20T02:56:08;100032.16;;;18.28;66.42
61384;BME280;63511;49.346;8.798;2023-07-20T02:58:41;100035.19;;;18.16;66.41
61384;BME280;63511;49.346;8.798;2023-07-20T03:01:11;100034.94;;;17.82;68.15
61384;BME280;63511;49.346;8.798;2023-07-20T03:03:37;100039.16;;;18.07;67.33
61384;BME280;63511;49.346;8.798;2023-07-20T03:06:04;100036.31;;;17.98;67.58
61384;BME280;63511;49.346;8.798;2023-07-20T03:08:31;100021.78;;;17.97;67.30
61384;BME280;63511;49.346;8.798;2023-07-20T03:10:58;100040.44;;;17.69;69.02
61384;BME280;63511;49.346;8.798;2023-07-20T03:13:24;100032.97;;;17.75;68.21
61384;BME280;63511;49.346;8.798;2023-07-20T03:15:53;100035.97;;;17.63;68.69
61384;BME280;63511;49.346;8.798;2023-07-20T03:18:20;100030.00;;;17.63;68.55
61384;BME280;63511;49.346;8.798;2023-07-20T03:20:46;100032.63;;;17.64;68.61
61384;BME280;63511;49.346;8.798;2023-07-20T03:23:14;100035.06;;;17.37;70.14
61384;BME280;63511;49.346;8.798;2023-07-20T03:25:42;100041.34;;;17.23;71.03
61384;BME280;63511;49.346;8.798;2023-07-20T03:28:11;100048.03;;;17.43;70.06
61384;BME280;63511;49.346;8.798;2023-07-20T03:30:38;100037.88;;;17.45;69.49
61384;BME280;63511;49.346;8.798;2023-07-20T03:33:06;100039.81;;;17.05;72.31
61384;BME280;63511;49.346;8.798;2023-07-20T03:35:33;100039.44;;;17.18;71.13
61384;BME280;63511;49.346;8.798;2023-07-20T03:37:59;100052.31;;;17.21;71.14
61384;BME280;63511;49.346;8.798;2023-07-20T03:40:28;100043.31;;;17.30;71.23
61384;BME280;63511;49.346;8.798;2023-07-20T03:42:55;100051.63;;;17.25;71.29
61384;BME280;63511;49.346;8.798;2023-07-20T03:45:21;100043.34;;;17.32;71.07
61384;BME280;63511;49.346;8.798;2023-07-20T03:47:52;100049.34;;;17.32;71.63
61384;BME280;63511;49.346;8.798;2023-07-20T03:50:20;100045.56;;;17.47;71.06
61384;BME280;63511;49.346;8.798;2023-07-20T03:52:47;100041.31;;;17.46;70.14
61384;BME280;63511;49.346;8.798;2023-07-20T03:55:13;100049.91;;;17.25;71.39
61384;BME280;63511;49.346;8.798;2023-07-20T03:57:40;100053.31;;;17.24;72.05
61384;BME280;63511;49.346;8.798;2023-07-20T04:00:09;100055.97;;;17.27;73.71
61384;BME280;63511;49.346;8.798;2023-07-20T04:02:37;100059.59;;;17.34;72.91
61384;BME280;63511;49.346;8.798;2023-07-20T04:05:04;100055.63;;;17.42;74.02
61384;BME280;63511;49.346;8.798;2023-07-20T04:07:32;100063.88;;;17.59;72.17
61384;BME280;63511;49.346;8.798;2023-07-20T04:09:59;100070.22;;;17.68;71.69
61384;BME280;63511;49.346;8.798;2023-07-20T04:12:26;100061.53;;;17.63;71.13
61384;BME280;63511;49.346;8.798;2023-07-20T04:14:52;100072.38;;;17.81;70.86
61384;BME280;63511;49.346;8.798;2023-07-20T04:17:19;100074.31;;;17.89;70.33
61384;BME280;63511;49.346;8.798;2023-07-20T04:19:46;100067.06;;;17.75;72.86
61384;BME280;63511;49.346;8.798;2023-07-20T04:22:13;100070.56;;;17.79;71.86
61384;BME280;63511;49.346;8.798;2023-07-20T04:24:42;100071.59;;;17.84;72.72
61384;BME280;63511;49.346;8.798;2023-07-20T04:27:08;100080.41;;;17.92;72.49
61384;BME280;63511;49.346;8.798;2023-07-20T04:29:35;100084.59;;;17.90;71.80
61384;BME280;63511;49.346;8.798;2023-07-20T04:32:02;100082.78;;;17.88;72.55
61384;BME280;63511;49.346;8.798;2023-07-20T04:34:28;100081.56;;;18.02;71.08
61384;BME280;63511;49.346;8.798;2023-07-20T04:36:55;100081.16;;;18.15;69.42
61384;BME280;63511;49.346;8.798;2023-07-20T04:39:22;100081.56;;;18.27;69.72
61384;BME280;63511;49.346;8.798;2023-07-20T04:41:50;100088.78;;;18.40;68.91
61384;BME280;63511;49.346;8.798;2023-07-20T04:44:16;100087.22;;;18.45;68.91
61384;BME280;63511;49.346;8.798;2023-07-20T04:46:43;100092.47;;;18.48;70.17
61384;BME280;63511;49.346;8.798;2023-07-20T04:49:09;100087.59;;;18.83;66.64
61384;BME280;63511;49.346;8.798;2023-07-20T04:51:37;100083.72;;;19.25;65.27
61384;BME280;63511;49.346;8.798;2023-07-20T04:54:04;100086.59;;;19.36;65.74
61384;BME280;63511;49.346;8.798;2023-07-20T04:56:31;100084.97;;;19.39;67.95
61384;BME280;63511;49.346;8.798;2023-07-20T04:58:59;100076.44;;;19.70;64.64
61384;BME280;63511;49.346;8.798;2023-07-20T05:01:26;100082.09;;;19.57;65.10
61384;BME280;63511;49.346;8.798;2023-07-20T05:03:53;100084.44;;;19.49;67.37
61384;BME280;63511;49.346;8.798;2023-07-20T05:06:19;100089.72;;;19.56;65.06
61384;BME280;63511;49.346;8.798;2023-07-20T05:08:46;100078.69;;;19.91;62.53
61384;BME280;63511;49.346;8.798;2023-07-20T05:11:13;100081.34;;;19.94;63.82
61384;BME280;63511;49.346;8.798;2023-07-20T05:13:42;100077.59;;;20.16;61.66
61384;BME280;63511;49.346;8.798;2023-07-20T05:16:10;100069.72;;;20.41;62.00
61384;BME280;63511;49.346;8.798;2023-07-20T05:18:37;100068.13;;;20.46;61.63
61384;BME280;63511;49.346;8.798;2023-07-20T05:21:05;100072.72;;;20.26;60.72
61384;BME280;63511;49.346;8.798;2023-07-20T05:23:32;100071.03;;;20.27;61.22
61384;BME280;63511;49.346;8.798;2023-07-20T05:25:59;100074.66;;;20.33;62.60
61384;BME280;63511;49.346;8.798;2023-07-20T05:28:26;100063.09;;;20.16;63.98
61384;BME280;63511;49.346;8.798;2023-07-20T05:30:53;100075.03;;;20.14;63.58
61384;BME280;63511;49.346;8.798;2023-07-20T05:33:22;100078.31;;;20.09;62.62
61384;BME280;63511;49.346;8.798;2023-07-20T05:35:48;100079.31;;;20.15;61.65
61384;BME280;63511;49.346;8.798;2023-07-20T05:38:15;100068.53;;;20.28;62.59
61384;BME280;63511;49.346;8.798;2023-07-20T05:40:44;100066.97;;;20.33;61.12
61384;BME280;63511;49.346;8.798;2023-07-20T05:43:12;100074.25;;;20.51;61.02
61384;BME280;63511;49.346;8.798;2023-07-20T05:45:41;100076.44;;;20.36;60.33
61384;BME280;63511;49.346;8.798;2023-07-20T05:48:08;100076.94;;;20.23;62.16
61384;BME280;63511;49.346;8.798;2023-07-20T05:50:41;100071.19;;;20.31;61.96
61384;BME280;63511;49.346;8.798;2023-07-20T05:53:08;100073.91;;;20.38;60.45
61384;BME280;63511;49.346;8.798;2023-07-20T05:55:37;100071.09;;;20.28;60.61
61384;BME280;63511;49.346;8.798;2023-07-20T05:58:05;100063.63;;;20.36;60.95
61384;BME280;63511;49.346;8.798;2023-07-20T06:00:32;100068.22;;;20.51;60.03
61384;BME280;63511;49.346;8.798;2023-07-20T06:02:58;100071.28;;;20.34;59.95
61384;BME280;63511;49.346;8.798;2023-07-20T06:05:25;100075.69;;;20.42;59.95
61384;BME280;63511;49.346;8.798;2023-07-20T06:07:53;100067.03;;;20.74;59.92
61384;BME280;63511;49.346;8.798;2023-07-20T06:10:20;100079.91;;;20.75;60.02
61384;BME280;63511;49.346;8.798;2023-07-20T06:12:47;100071.41;;;20.78;59.57
61384;BME280;63511;49.346;8.798;2023-07-20T06:15:27;100074.81;;;20.77;59.79
61384;BME280;63511;49.346;8.798;2023-07-20T06:17:55;100076.91;;;20.95;60.30
61384;BME280;63511;49.346;8.798;2023-07-20T06:20:23;100081.00;;;21.24;59.66
61384;BME280;63511;49.346;8.798;2023-07-20T06:22:50;100074.69;;;21.11;59.47
61384;BME280;63511;49.346;8.798;2023-07-20T06:25:18;100070.34;;;21.51;57.87
61384;BME280;63511;49.346;8.798;2023-07-20T06:27:45;100068.16;;;21.24;58.81
61384;BME280;63511;49.346;8.798;2023-07-20T06:30:12;100079.34;;;21.28;58.56
61384;BME280;63511;49.346;8.798;2023-07-20T06:32:39;100076.00;;;21.32;57.84
61384;BME280;63511;49.346;8.798;2023-07-20T06:35:06;100081.78;;;21.22;56.85
61384;BME280;63511;49.346;8.798;2023-07-20T06:37:33;100083.44;;;21.19;59.02
61384;BME280;63511;49.346;8.798;2023-07-20T06:40:02;100080.47;;;21.42;58.67
61384;BME280;63511;49.346;8.798;2023-07-20T06:42:30;100087.00;;;21.71;58.21
61384;BME280;63511;49.346;8.798;2023-07-20T06:44:57;100084.47;;;21.73;56.72
61384;BME280;63511;49.346;8.798;2023-07-20T06:47:24;100081.06;;;21.74;56.46
61384;BME280;63511;49.346;8.798;2023-07-20T06:49:51;100090.84;;;21.91;57.45
61384;BME280;63511;49.346;8.798;2023-07-20T06:52:18;100084.66;;;21.83;56.75
61384;BME280;63511;49.346;8.798;2023-07-20T06:54:44;100082.03;;;21.79;57.63
61384;BME280;63511;49.346;8.798;2023-07-20T06:57:11;100081.94;;;21.74;58.46
61384;BME280;63511;49.346;8.798;2023-07-20T06:59:39;100082.28;;;21.47;55.99
61384;BME280;63511;49.346;8.798;2023-07-20T07:02:06;100083.00;;;21.87;57.54
61384;BME280;63511;49.346;8.798;2023-07-20T07:04:32;100082.19;;;21.88;56.83
61384;BME280;63511;49.346;8.798;2023-07-20T07:06:59;100084.94;;;21.97;56.58
61384;BME280;63511;49.346;8.798;2023-07-20T07:09:26;100073.66;;;21.90;57.34
61384;BME280;63511;49.346;8.798;2023-07-20T07:11:53;100086.97;;;22.15;56.51
61384;BME280;63511;49.346;8.798;2023-07-20T07:14:20;100085.88;;;22.00;56.05
61384;BME280;63511;49.346;8.798;2023-07-20T07:16:48;100083.34;;;22.02;56.45
61384;BME280;63511;49.346;8.798;2023-07-20T07:19:15;100086.13;;;22.16;56.41
61384;BME280;63511;49.346;8.798;2023-07-20T07:21:41;100079.34;;;22.21;56.29
61384;BME280;63511;49.346;8.798;2023-07-20T07:24:08;100086.25;;;22.23;54.42
61384;BME280;63511;49.346;8.798;2023-07-20T07:26:35;100084.53;;;22.24;55.55
61384;BME280;63511;49.346;8.798;2023-07-20T07:29:02;100069.41;;;22.42;55.36
61384;BME280;63511;49.346;8.798;2023-07-20T07:31:29;100080.53;;;22.41;56.46
61384;BME280;63511;49.346;8.798;2023-07-20T07:33:57;100078.91;;;22.49;54.25
61384;BME280;63511;49.346;8.798;2023-07-20T07:36:24;100085.72;;;22.44;54.87
61384;BME280;63511;49.346;8.798;2023-07-20T07:38:50;100082.38;;;22.48;54.55
61384;BME280;63511;49.346;8.798;2023-07-20T07:41:17;100068.94;;;22.70;53.74
61384;BME280;63511;49.346;8.798;2023-07-20T07:43:44;100069.66;;;22.59;54.73
61384;BME280;63511;49.346;8.798;2023-07-20T07:46:10;100064.53;;;22.62;54.56
61384;BME280;63511;49.346;8.798;2023-07-20T07:48:37;100068.81;;;22.61;53.62
61384;BME280;63511;49.346;8.798;2023-07-20T07:51:06;100063.56;;;22.55;54.20
61384;BME280;63511;49.346;8.798;2023-07-20T07:53:34;100065.69;;;22.80;52.30
61384;BME280;63511;49.346;8.798;2023-07-20T07:56:02;100065.34;;;22.58;54.45
61384;BME280;63511;49.346;8.798;2023-07-20T07:58:29;100070.78;;;22.74;53.92
61384;BME280;63511;49.346;8.798;2023-07-20T08:00:56;100065.31;;;22.56;51.51
61384;BME280;63511;49.346;8.798;2023-07-20T08:03:23;100071.94;;;22.98;52.69
61384;BME280;63511;49.346;8.798;2023-07-20T08:05:50;100078.84;;;23.02;51.47
61384;BME280;63511;49.346;8.798;2023-07-20T08:08:21;100076.41;;;23.11;51.94
61384;BME280;63511;49.346;8.798;2023-07-20T08:10:48;100066.28;;;23.26;49.98
61384;BME280;63511;49.346;8.798;2023-07-20T08:13:15;100064.63;;;23.34;48.90
61384;BME280;63511;49.346;8.798;2023-07-20T08:15:49;100069.66;;;23.23;50.64
61384;BME280;63511;49.346;8.798;2023-07-20T08:18:15;100063.13;;;23.47;50.24
61384;BME280;63511;49.346;8.798;2023-07-20T08:20:43;100069.78;;;23.31;50.42
61384;BME280;63511;49.346;8.798;2023-07-20T08:23:13;100068.97;;;23.37;49.68
61384;BME280;63511;49.346;8.798;2023-07-20T08:25:42;100065.53;;;23.38;48.99
61384;BME280;63511;49.346;8.798;2023-07-20T08:28:10;100069.59;;;23.16;50.47
61384;BME280;63511;49.346;8.798;2023-07-20T08:30:41;100066.19;;;23.20;48.85
61384;BME280;63511;49.346;8.798;2023-07-20T08:33:09;100061.91;;;23.20;50.57
61384;BME280;63511;49.346;8.798;2023-07-20T08:35:36;100069.66;;;23.22;49.21
61384;BME280;63511;49.346;8.798;2023-07-20T08:38:03;100067.22;;;23.34;50.37
61384;BME280;63511;49.346;8.798;2023-07-20T08:40:31;100062.63;;;23.83;49.91
61384;BME280;63511;49.346;8.798;2023-07-20T08:43:00;100062.78;;;24.05;49.02
61384;BME280;63511;49.346;8.798;2023-07-20T08:45:27;100070.25;;;23.75;46.74
61384;BME280;63511;49.346;8.798;2023-07-20T08:47:56;100057.66;;;24.07;45.42
61384;BME280;63511;49.346;8.798;2023-07-20T08:50:25;100053.44;;;24.17;45.73
61384;BME280;63511;49.346;8.798;2023-07-20T08:52:56;100057.03;;;24.32;46.50
61384;BME280;63511;49.346;8.798;2023-07-20T08:55:23;100059.34;;;24.03;46.55
61384;BME280;63511;49.346;8.798;2023-07-20T08:57:53;100064.84;;;23.52;47.70
61384;BME280;63511;49.346;8.798;2023-07-20T09:00:23;100056.41;;;23.65;47.46
61384;BME280;63511;49.346;8.798;2023-07-20T09:02:52;100055.66;;;23.79;46.30
61384;BME280;63511;49.346;8.798;2023-07-20T09:05:19;100062.69;;;23.92;47.10
61384;BME280;63511;49.346;8.798;2023-07-20T09:07:46;100054.88;;;23.83;45.90
61384;BME280;63511;49.346;8.798;2023-07-20T09:10:14;100054.22;;;24.09;45.44
61384;BME280;63511;49.346;8.798;2023-07-20T09:12:41;100058.56;;;24.15;43.48
61384;BME280;63511;49.346;8.798;2023-07-20T09:15:10;100049.41;;;24.50;43.79
61384;BME280;63511;49.346;8.798;2023-07-20T09:17:38;100047.78;;;24.66;46.43
61384;BME280;63511;49.346;8.798;2023-07-20T09:20:06;100048.81;;;24.94;45.72
61384;BME280;63511;49.346;8.798;2023-07-20T09:22:36;100054.88;;;25.04;46.57
61384;BME280;63511;49.346;8.798;2023-07-20T09:25:06;100050.38;;;24.66;45.92
61384;BME280;63511;49.346;8.798;2023-07-20T09:27:35;100036.59;;;24.72;44.69
61384;BME280;63511;49.346;8.798;2023-07-20T09:30:03;100048.78;;;24.92;46.61
61384;BME280;63511;49.346;8.798;2023-07-20T09:32:39;100047.63;;;24.40;45.05
61384;BME280;63511;49.346;8.798;2023-07-20T09:35:12;100044.22;;;24.49;46.40
61384;BME280;63511;49.346;8.798;2023-07-20T09:37:39;100049.44;;;24.55;46.76
61384;BME280;63511;49.346;8.798;2023-07-20T09:40:07;100041.75;;;24.69;47.74
61384;BME280;63511;49.346;8.798;2023-07-20T09:42:35;100052.16;;;24.84;46.72
61384;BME280;63511;49.346;8.798;2023-07-20T09:45:06;100047.03;;;24.87;45.72
61384;BME280;63511;49.346;8.798;2023-07-20T09:47:35;100053.84;;;24.71;44.54
61384;BME280;63511;49.346;8.798;2023-07-20T09:50:05;100050.53;;;24.90;45.15
61384;BME280;63511;49.346;8.798;2023-07-20T09:52:37;100053.97;;;24.91;45.22
61384;BME280;63511;49.346;8.798;2023-07-20T09:55:06;100043.66;;;25.03;41.96
61384;BME280;63511;49.346;8.798;2023-07-20T09:57:34;100044.47;;;24.88;44.77
61384;BME280;63511;49.346;8.798;2023-07-20T10:00:03;100048.94;;;25.30;45.27
61384;BME280;63511;49.346;8.798;2023-07-20T10:02:34;100045.44;;;25.13;42.96
61384;BME280;63511;49.346;8.798;2023-07-20T10:05:07;100041.22;;;25.33;43.81
61384;BME280;63511;49.346;8.798;2023-07-20T10:07:40;100040.34;;;25.31;42.31
61384;BME280;63511;49.346;8.798;2023-07-20T10:10:09;100036.84;;;25.17;42.39
61384;BME280;63511;49.346;8.798;2023-07-20T10:12:37;100041.22;;;25.43;45.17
61384;BME280;63511;49.346;8.798;2023-07-20T10:15:11;100029.16;;;25.42;45.00
61384;BME280;63511;49.346;8.798;2023-07-20T10:17:43;100030.03;;;25.48;42.92
61384;BME280;63511;49.346;8.798;2023-07-20T10:20:16;100028.38;;;25.97;42.71
61384;BME280;63511;49.346;8.798;2023-07-20T10:22:46;100027.53;;;25.78;42.64
61384;BME280;63511;49.346;8.798;2023-07-20T10:25:15;100027.47;;;25.56;43.65
61384;BME280;63511;49.346;8.798;2023-07-20T10:27:43;100015.44;;;25.62;41.43
61384;BME280;63511;49.346;8.798;2023-07-20T10:30:10;100018.03;;;25.76;39.81
61384;BME280;63511;49.346;8.798;2023-07-20T10:32:39;100010.25;;;25.62;38.64
61384;BME280;63511;49.346;8.798;2023-07-20T10:35:12;100011.13;;;25.76;40.39
61384;BME280;63511;49.346;8.798;2023-07-20T10:38:00;100017.16;;;25.57;42.34
61384;BME280;63511;49.346;8.798;2023-07-20T10:40:31;100009.34;;;25.50;40.65
61384;BME280;63511;49.346;8.798;2023-07-20T10:43:04;100002.50;;;26.00;41.56
61384;BME280;63511;49.346;8.798;2023-07-20T10:45:39;100001.63;;;26.01;40.86
61384;BME280;63511;49.346;8.798;2023-07-20T10:48:13;99999.06;;;25.92;42.44
61384;BME280;63511;49.346;8.798;2023-07-20T10:53:20;99989.53;;;26.08;40.02
61384;BME280;63511;49.346;8.798;2023-07-20T10:55:47;99991.28;;;25.86;39.53
61384;BME280;63511;49.346;8.798;2023-07-20T10:58:16;99995.63;;;25.69;42.73
61384;BME280;63511;49.346;8.798;2023-07-20T11:00:56;99989.56;;;26.11;41.86
61384;BME280;63511;49.346;8.798;2023-07-20T11:03:29;99983.47;;;26.44;42.37
61384;BME280;63511;49.346;8.798;2023-07-20T11:05:57;99974.00;;;26.12;40.44
61384;BME280;63511;49.346;8.798;2023-07-20T11:08:41;99980.94;;;26.04;39.21
61384;BME280;63511;49.346;8.798;2023-07-20T11:11:25;99980.06;;;26.23;41.02
61384;BME280;63511;49.346;8.798;2023-07-20T11:13:56;99973.16;;;26.30;41.58
61384;BME280;63511;49.346;8.798;2023-07-20T11:16:37;99974.88;;;26.42;40.18
61384;BME280;63511;49.346;8.798;2023-07-20T11:19:04;99978.31;;;26.19;38.52
61384;BME280;63511;49.346;8.798;2023-07-20T11:21:36;99974.84;;;26.45;40.02
61384;BME280;63511;49.346;8.798;2023-07-20T11:24:08;99972.19;;;26.60;40.72
61384;BME280;63511;49.346;8.798;2023-07-20T11:26:53;99967.00;;;26.68;40.20
61384;BME280;63511;49.346;8.798;2023-07-20T11:29:21;99960.00;;;26.92;39.82
61384;BME280;63511;49.346;8.798;2023-07-20T11:31:49;99955.72;;;26.88;39.19
61384;BME280;63511;49.346;8.798;2023-07-20T11:34:17;99954.88;;;26.77;41.01
61384;BME280;63511;49.346;8.798;2023-07-20T11:36:45;99954.09;;;26.48;39.75
61384;BME280;63511;49.346;8.798;2023-07-20T11:39:15;99952.44;;;26.29;36.94
61384;BME280;63511;49.346;8.798;2023-07-20T11:41:47;99955.00;;;26.33;37.12
61384;BME280;63511;49.346;8.798;2023-07-20T11:44:15;99955.69;;;26.82;36.96
61384;BME280;63511;49.346;8.798;2023-07-20T11:46:42;99956.66;;;26.58;37.55
61384;BME280;63511;49.346;8.798;2023-07-20T11:49:11;99959.13;;;26.99;37.25
61384;BME280;63511;49.346;8.798;2023-07-20T11:51:38;99945.47;;;26.52;36.93
61384;BME280;63511;49.346;8.798;2023-07-20T11:54:07;99947.25;;;26.12;39.14
61384;BME280;63511;49.346;8.798;2023-07-20T11:56:36;99947.25;;;26.19;38.40
61384;BME280;63511;49.346;8.798;2023-07-20T11:59:06;99944.63;;;26.41;37.75
61384;BME280;63511;49.346;8.798;2023-07-20T12:01:33;99941.16;;;26.51;38.14
61384;BME280;63511;49.346;8.798;2023-07-20T12:04:01;99937.69;;;26.56;38.20
61384;BME280;63511;49.346;8.798;2023-07-20T12:06:28;99928.19;;;26.51;37.63
61384;BME280;63511;49.346;8.798;2023-07-20T12:08:57;99933.50;;;25.99;38.08
61384;BME280;63511;49.346;8.798;2023-07-20T12:11:31;99929.19;;;26.06;39.42
61384;BME280;63511;49.346;8.798;2023-07-20T12:13:59;99930.00;;;26.37;39.82
61384;BME280;63511;49.346;8.798;2023-07-20T12:16:28;99931.56;;;26.70;38.62
61384;BME280;63511;49.346;8.798;2023-07-20T12:18:59;99933.22;;;26.93;38.80
61384;BME280;63511;49.346;8.798;2023-07-20T12:21:29;99924.75;;;26.49;38.60
61384;BME280;63511;49.346;8.798;2023-07-20T12:24:02;99922.88;;;26.89;37.12
61384;BME280;63511;49.346;8.798;2023-07-20T12:26:29;99916.94;;;26.61;39.46
61384;BME280;63511;49.346;8.798;2023-07-20T12:28:56;99911.81;;;26.46;37.91
61384;BME280;63511;49.346;8.798;2023-07-20T12:31:25;99918.75;;;26.42;38.42
61384;BME280;63511;49.346;8.798;2023-07-20T12:33:52;99916.19;;;26.19;37.74
61384;BME280;63511;49.346;8.798;2023-07-20T12:36:20;99913.63;;;26.09;38.07
61384;BME280;63511;49.346;8.798;2023-07-20T12:38:47;99905.91;;;25.86;41.17
61384;BME280;63511;49.346;8.798;2023-07-20T12:41:14;99911.00;;;26.29;41.83
61384;BME280;63511;49.346;8.798;2023-07-20T12:43:41;99906.53;;;26.72;38.14
61384;BME280;63511;49.346;8.798;2023-07-20T12:46:08;99898.53;;;27.14;40.36
61384;BME280;63511;49.346;8.798;2023-07-20T12:48:38;99898.44;;;27.23;38.94
61384;BME280;63511;49.346;8.798;2023-07-20T12:51:07;99893.41;;;27.02;36.37
61384;BME280;63511;49.346;8.798;2023-07-20T12:53:34;99895.34;;;26.59;36.38
61384;BME280;63511;49.346;8.798;2023-07-20T12:56:01;99892.66;;;26.74;36.49
61384;BME280;63511;49.346;8.798;2023-07-20T12:58:28;99888.81;;;27.37;37.96
61384;BME280;63511;49.346;8.798;2023-07-20T13:00:55;99880.13;;;27.43;34.88
61384;BME280;63511;49.346;8.798;2023-07-20T13:03:21;99878.97;;;27.77;36.84